Downsville, New York
Current Conditions -  °F | °C
As of 2:55 PM on Friday 24 Oct 2014 (Local Time) from KMSV Reporting Station
Scattered Clouds Scattered Clouds  
Wind Chill: 61°   Ceiling: Unl
Heat Index: 61°   Visibility: 10mi
Dew Point: 43°   Wind: 15mph
Humidity: 52%   Direction: 310°NW
Pressure: 29.8"   Gusts: 25mph
Location:  42.08°N, 75°W
Report Text: KMSV 241855Z AUTO 31013G22KT 10SM SCT041 16/06 A2980 RMK AO1 P0001
Loading
Personal Weather Stations






























Interactive Weather Map
Tropical Storm Tracking
New forecast layout! Learn more

10-Day Weather Forecast

Advertisements
Track Severe Weather on mobile